Arthur Maersk — OXJH2 — position and weather

sailwx.info

Track history (hours):
 
Tides and Currents Weather Stations Pressure Air Temp Water Temp Dewpoint Dewpoint Depression Visibility Wind Speed Wind Dir Waves Ship Positions

Arthur Maersk

Last reported at 2016-Feb-10 10:16 UTC. Time now 2016-Feb-10 10:48 UTC.
Position N 36°05' W 009°05'.

Length 352 m; draft 13 m.

Type: Ship (hazmat cat A). MMSI: 220221000.

Date/timePositionNaut miles runAvg speedWind from/ knotsBaromVisibWave heightAir tempDewpointWater temp
2016-Feb-10 10:16N 36°05' W 009°05'1719.2
2016-Feb-10 09:22N 36°04' W 008°44'1518.0
2016-Feb-10 08:31N 36°04' W 008°25'13618.8
2016-Feb-10 01:17N 35°57' W 005°37'1217.1
2016-Feb-10 00:33N 36°03' W 005°23'1716.6
2016-Feb-09 23:33N 36°03' W 005°02'25417.9
2016-Feb-09 09:20N 36°46' E 000°09'1618.8
2016-Feb-09 08:30N 36°49' E 000°28'1919.2
2016-Feb-09 07:32N 36°51' E 000°51'5718.8
2016-Feb-09 04:30N 37°00' E 002°01'56518.8
2016-Feb-07 22:32N 36°40' E 013°46'1818.8
2016-Feb-07 21:33N 36°34' E 014°08'2019.6
2016-Feb-07 20:33N 36°27' E 014°31'1919.1
2016-Feb-07 19:33N 36°22' E 014°53'  
Track history (hours):
 
Tides and Currents Weather Stations Pressure Air Temp Water Temp Dewpoint Dewpoint Depression Visibility Wind Speed Wind Dir Waves Ship Positions

Arthur Maersk

Last reported at 2016-Feb-10 10:16 UTC. Time now 2016-Feb-10 10:48 UTC.
Position N 36°05' W 009°05'.

Length 352 m; draft 13 m.

Type: Ship (hazmat cat A). MMSI: 220221000.

Date/timePositionNaut miles runAvg speedWind from/ knotsBaromVisibWave heightAir tempDewpointWater temp
2016-Feb-10 10:16N 36°05' W 009°05'1719.2
2016-Feb-10 09:22N 36°04' W 008°44'1518.0
2016-Feb-10 08:31N 36°04' W 008°25'13618.8
2016-Feb-10 01:17N 35°57' W 005°37'1217.1
2016-Feb-10 00:33N 36°03' W 005°23'1716.6
2016-Feb-09 23:33N 36°03' W 005°02'25417.9
2016-Feb-09 09:20N 36°46' E 000°09'1618.8
2016-Feb-09 08:30N 36°49' E 000°28'1919.2
2016-Feb-09 07:32N 36°51' E 000°51'5718.8
2016-Feb-09 04:30N 37°00' E 002°01'56518.8
2016-Feb-07 22:32N 36°40' E 013°46'1818.8
2016-Feb-07 21:33N 36°34' E 014°08'2019.6
2016-Feb-07 20:33N 36°27' E 014°31'1919.1
2016-Feb-07 19:33N 36°22' E 014°53'  

Dump ship's entire track history